• Join FlightAware (Why Join?)
  • Login
  • US Flag 
04:38PM EDT


 

Airport Tracker/Info


-or-


 

Live Flight TrackerFlight Track Log ✈ DAL511 ✈ 21-Apr-2013 ✈ KATL - KJAX

Flight Track Log - Related Links

Times and Time Zones

All times are in EDT time to prevent confusion due to time zone crossing. See the DAL511 flight status page for this flight to view local times or setup timezone preferences in your user account.

Time Position Orientation Groundspeed Altitude Reporting Facility
EDT Latitude Longitude Course Direction KTS MPH feet Rate Location/Type
12:29PM 33.6167 -84.3500 121° Southeast 221 254 3,500  Level Atlanta TRACON
12:30PM 33.6000 -84.2833 107° East 257 296 7,100 2,220 Climbing Atlanta TRACON
12:31PM 33.3746 -84.2579 140° Southeast  Level FlightAware Approximate
12:32PM 33.2820 -84.1651 140° Southeast  Level FlightAware Approximate
12:32PM 33.4331 -84.2778 178° South 304 350 10,700  Level Atlanta Center
12:33PM 33.1894 -84.0725 140° Southeast  Level FlightAware Approximate
12:33PM 33.3453 -84.2353 158° South 329 379 12,700  Level Atlanta Center
12:34PM 33.0952 -83.9904 121° Southeast  Level FlightAware Approximate
12:34PM 33.2597 -84.1506 140° Southeast 353 406 15,300  Level Atlanta Center
12:35PM 33.1639 -84.0561 140° Southeast 385 443 17,700 2,040 Climbing Atlanta Center
12:36PM 33.0742 -83.9669 140° Southeast 408 470 19,400 1,740 Climbing Atlanta Center
12:37PM 32.9864 -83.8928 145° Southeast 425 489 21,200 1,920 Climbing Atlanta Center
12:38PM 32.8819 -83.8089 146° Southeast 442 509 23,300 1,380 Climbing Atlanta Center
12:39PM 32.7836 -83.7275 145° Southeast 442 509 24,000 300 Climbing Atlanta Center
12:40PM 32.6831 -83.6414 144° Southeast 447 514 24,000  Level Atlanta Center
12:41PM 32.5931 -83.5508 140° Southeast 442 509 24,000  Level Atlanta Center
12:42PM 32.4986 -83.4550 139° Southeast 437 503 24,000  Level Atlanta Center
12:43PM 32.4022 -83.3622 141° Southeast 442 509 24,000  Level Atlanta Center
12:44PM 32.3097 -83.2672 139° Southeast 449 517 24,000  Level Atlanta Center
12:45PM 32.2058 -83.1650 140° Southeast 445 512 24,000  Level Jacksonville Center
12:46PM 32.1122 -83.0717 140° Southeast 450 518 24,000  Level Jacksonville Center
12:47PM 32.0142 -82.9758 140° Southeast 450 518 24,000  Level Jacksonville Center
12:48PM 31.9181 -82.8828 141° Southeast 450 518 24,000 -540 Level Jacksonville Center
12:49PM 31.8219 -82.7900 141° Southeast 450 518 23,000 -900 Descending Jacksonville Center
12:50PM 31.7197 -82.7069 145° Southeast 450 518 22,200 -840 Descending Jacksonville Center
12:51PM 31.6150 -82.6414 152° Southeast 438 504 21,400 -780 Descending Jacksonville Center
12:52PM 31.5106 -82.5758 152° Southeast 428 493 20,700 -720 Descending Jacksonville Center
12:53PM 31.4081 -82.5103 151° Southeast 423 487 20,000 -900 Descending Jacksonville Center
12:54PM 31.3056 -82.4453 152° Southeast 423 487 19,000 -1,500 Descending Jacksonville Center
12:55PM 31.2072 -82.3825 151° Southeast 417 480 17,100 -2,280 Descending Jacksonville Center
12:56PM 31.1444 -82.3392 149° Southeast 397 457 15,500 -2,580 Descending Jacksonville Center
12:56PM 31.1131 -82.3200 152° Southeast 405 466 14,500 -2,400 Descending Jacksonville Center
12:57PM 31.0208 -82.2597 151° Southeast 393 452 12,100 -1,380 Descending Jacksonville Center
12:58PM 30.9369 -82.1853 143° Southeast 388 447 11,800 -1,020 Descending Jacksonville Center
12:59PM 30.9117 -82.1564 136° Southeast 372 428 10,800 -1,800 Descending Jacksonville Center
12:59PM 30.8653 -82.1036 136° Southeast 376 433 10,000 -900 Descending Jacksonville Center
01:00PM 30.8339 -82.0653 134° Southeast 313 360 9,800 -1,260 Descending Jacksonville Center
01:00PM 30.8064 -82.0364 138° Southeast 334 384 8,800 -1,860 Descending Jacksonville Center
01:00PM 30.7875 -82.0147 135° Southeast 282 325 8,300 -1,740 Descending Jacksonville Center
01:01PM 30.7497 -81.9717 136° Southeast 302 348 7,100 -1,980 Descending Jacksonville Center
01:02PM 30.7328 -81.9525 136° Southeast 277 319 6,300 -1,920 Descending Jacksonville Center
01:02PM 30.6886 -81.9117 142° Southeast 284 327 5,200 -1,560 Descending Jacksonville Center
01:03PM 30.6656 -81.9097 176° South 238 274 4,600 -2,100 Descending Jacksonville Center
01:03PM 30.6239 -81.9053 175° South 243 280 3,100 -2,280 Descending Jacksonville Center
01:04PM 30.5989 -81.9031 176° South 244 281 2,300 -1,140 Descending Jacksonville Center
01:04PM 30.5528 -81.8986 175° South 243 280 2,000 -300 Descending Jacksonville Center
01:05PM 30.5217 -81.8992 181° South 243 280 2,000  Level Jacksonville Center
01:05PM 30.4881 -81.8944 173° South 243 280 2,000  Level Jacksonville Center
01:06PM 30.4567 -81.8828 162° South 228 262 2,000  Level Jacksonville Center
01:07PM 30.4561 -81.8275 91° East 167 192 2,000  Level Jacksonville Center